createdAt,value
2022-11-16T00:04:27.963Z,1006.3
2022-11-16T00:09:27.805Z,1006.3
2022-11-16T00:14:28.037Z,1006.3
2022-11-16T00:19:27.628Z,1006.2
2022-11-16T00:24:27.285Z,1006.2
2022-11-16T00:29:27.429Z,1006.1
2022-11-16T00:34:27.885Z,1006.1
2022-11-16T00:39:27.364Z,1006
2022-11-16T00:44:27.677Z,1006
2022-11-16T00:49:27.983Z,1006
2022-11-16T00:54:27.645Z,1006
2022-11-16T00:59:27.789Z,1006
2022-11-16T01:04:27.777Z,1006
2022-11-16T01:09:27.283Z,1005.9
2022-11-16T01:14:27.644Z,1005.9
2022-11-16T01:19:27.197Z,1005.8
2022-11-16T01:24:27.461Z,1005.8
2022-11-16T01:29:27.727Z,1005.8
2022-11-16T01:34:27.215Z,1005.8
2022-11-16T01:39:27.877Z,1005.8
2022-11-16T01:44:28.054Z,1005.8
2022-11-16T01:49:28.143Z,1005.9
2022-11-16T01:54:27.415Z,1005.9
2022-11-16T01:59:27.597Z,1005.7
2022-11-16T02:04:28.218Z,1005.7
2022-11-16T02:09:27.452Z,1005.6
2022-11-16T02:14:28.150Z,1005.6
2022-11-16T02:19:27.612Z,1005.4
2022-11-16T02:24:27.832Z,1005.4
2022-11-16T02:29:27.971Z,1005.2
2022-11-16T02:34:27.488Z,1005.2
2022-11-16T02:39:27.713Z,1005.2
2022-11-16T02:44:28.094Z,1005.2
2022-11-16T02:49:27.792Z,1005.2
2022-11-16T02:54:27.471Z,1005.2
2022-11-16T02:59:27.324Z,1005.2
2022-11-16T03:04:27.877Z,1005.2
2022-11-16T03:09:27.558Z,1005
2022-11-16T03:14:27.352Z,1005
2022-11-16T03:19:28.015Z,1005.1
2022-11-16T03:24:27.957Z,1005.1
2022-11-16T03:29:27.482Z,1005
2022-11-16T03:34:28.150Z,1005
2022-11-16T03:39:28.105Z,1005
2022-11-16T03:44:27.921Z,1005
2022-11-16T03:49:28.108Z,1005
2022-11-16T03:54:27.832Z,1005
2022-11-16T03:59:28.258Z,1005
2022-11-16T04:04:27.840Z,1005
2022-11-16T04:09:28.065Z,1004.9
2022-11-16T04:14:27.924Z,1004.9
2022-11-16T04:19:27.391Z,1005
2022-11-16T04:24:28.107Z,1005
2022-11-16T04:29:28.240Z,1005
2022-11-16T04:34:28.075Z,1005
2022-11-16T04:39:27.340Z,1005
2022-11-16T04:44:30.205Z,1005
2022-11-16T04:49:27.433Z,1005
2022-11-16T04:54:27.705Z,1005
2022-11-16T04:59:28.052Z,1005.1
2022-11-16T05:04:27.639Z,1005.1
2022-11-16T05:09:28.112Z,1005.1
2022-11-16T05:14:27.401Z,1005.1
2022-11-16T05:19:27.753Z,1005.1
2022-11-16T05:24:28.012Z,1005.1
2022-11-16T05:29:27.544Z,1004.9
2022-11-16T05:34:28.003Z,1004.9
2022-11-16T05:39:27.977Z,1005
2022-11-16T05:44:27.662Z,1005
2022-11-16T05:49:28.347Z,1005
2022-11-16T05:54:27.811Z,1005
2022-11-16T05:59:28.119Z,1005
2022-11-16T06:04:28.215Z,1005
2022-11-16T06:09:27.545Z,1005
2022-11-16T06:14:27.861Z,1005
2022-11-16T06:19:32.851Z,1005
2022-11-16T06:24:27.437Z,1005
2022-11-16T06:29:27.636Z,1005.1
2022-11-16T06:34:27.411Z,1005.1
2022-11-16T06:39:27.740Z,1005.1
2022-11-16T06:44:28.039Z,1005.1
2022-11-16T06:49:28.318Z,1005.2
2022-11-16T06:54:27.911Z,1005.2
2022-11-16T06:59:28.235Z,1005.2
2022-11-16T07:04:27.614Z,1005.2
2022-11-16T07:09:27.432Z,1005.1
2022-11-16T07:14:27.796Z,1005.1
2022-11-16T07:19:28.067Z,1005.1
2022-11-16T07:24:27.434Z,1005.1
2022-11-16T07:29:28.174Z,1005.1
2022-11-16T07:34:27.504Z,1005.1
2022-11-16T07:39:27.764Z,1005.1
2022-11-16T07:44:28.010Z,1005.1
2022-11-16T07:49:27.496Z,1005.2
2022-11-16T07:54:27.896Z,1005.2
2022-11-16T07:59:28.215Z,1005.2
2022-11-16T08:04:27.547Z,1005.2
2022-11-16T08:09:28.259Z,1005.2
2022-11-16T08:14:27.536Z,1005.2
2022-11-16T08:19:27.968Z,1005.2
2022-11-16T08:24:27.804Z,1005.2
2022-11-16T08:29:28.611Z,1005.2
2022-11-16T08:34:28.050Z,1005.2
2022-11-16T08:39:28.419Z,1005.2
2022-11-16T08:44:27.904Z,1005.2
2022-11-16T08:49:28.304Z,1005.3
2022-11-16T08:54:28.142Z,1005.3
2022-11-16T08:59:27.621Z,1005.4
2022-11-16T09:04:34.116Z,1005.4
2022-11-16T09:09:28.244Z,1005.3
2022-11-16T09:14:27.969Z,1005.3
2022-11-16T09:19:27.670Z,1005.3
2022-11-16T09:24:27.893Z,1005.3
2022-11-16T09:29:28.262Z,1005.4
2022-11-16T09:34:27.617Z,1005.4
2022-11-16T09:39:32.658Z,1005.6
2022-11-16T09:44:27.699Z,1005.6
2022-11-16T09:49:28.299Z,1005.8
2022-11-16T09:54:27.677Z,1005.8
2022-11-16T09:59:28.048Z,1005.9
2022-11-16T10:04:27.779Z,1005.9
2022-11-16T10:09:27.715Z,1005.9
2022-11-16T10:14:28.335Z,1005.9
2022-11-16T10:19:27.888Z,1006
2022-11-16T10:24:28.205Z,1006
2022-11-16T10:29:27.534Z,1006
2022-11-16T10:34:27.947Z,1006
2022-11-16T10:39:28.429Z,1006
2022-11-16T10:44:28.723Z,1006
2022-11-16T10:49:28.483Z,1006
2022-11-16T10:54:28.245Z,1006
2022-11-16T10:59:27.868Z,1005.9
2022-11-16T11:04:27.889Z,1005.9
2022-11-16T11:09:28.281Z,1005.9
2022-11-16T11:14:28.418Z,1005.9
2022-11-16T11:19:27.620Z,1005.9
2022-11-16T11:24:45.561Z,1005.9
2022-11-16T11:29:27.866Z,1005.8
2022-11-16T11:34:28.159Z,1005.8
2022-11-16T11:39:28.683Z,1005.8
2022-11-16T11:44:27.532Z,1005.8
2022-11-16T11:49:34.160Z,1005.7
2022-11-16T11:54:28.334Z,1005.7
2022-11-16T11:59:27.687Z,1005.6
2022-11-16T12:04:28.076Z,1005.6
2022-11-16T12:09:28.227Z,1005.6
2022-11-16T12:14:28.151Z,1005.6
2022-11-16T12:19:28.420Z,1005.7
2022-11-16T12:24:28.588Z,1005.7
2022-11-16T12:29:27.705Z,1005.6
2022-11-16T12:34:28.018Z,1005.6
2022-11-16T12:39:28.507Z,1005.6
2022-11-16T12:44:27.919Z,1005.6
2022-11-16T12:49:28.320Z,1005.6
2022-11-16T12:54:28.047Z,1005.6
2022-11-16T12:59:28.301Z,1005.6
2022-11-16T13:04:28.205Z,1005.6
2022-11-16T13:09:28.791Z,1005.5
2022-11-16T13:14:28.436Z,1005.5
2022-11-16T13:19:28.454Z,1005.5
2022-11-16T13:24:28.561Z,1005.5
2022-11-16T13:29:27.834Z,1005.6
2022-11-16T13:34:28.113Z,1005.6
2022-11-16T13:39:28.646Z,1005.5
2022-11-16T13:44:27.780Z,1005.5
2022-11-16T13:49:28.087Z,1005.5
2022-11-16T13:54:47.055Z,1005.5
2022-11-16T13:59:28.584Z,1005.5
2022-11-16T14:04:27.764Z,1005.5
2022-11-16T14:09:33.292Z,1005.3
2022-11-16T14:14:27.741Z,1005.3
2022-11-16T14:19:28.110Z,1005.4
2022-11-16T14:24:28.282Z,1005.4
2022-11-16T14:29:28.639Z,1005.4
2022-11-16T14:34:28.679Z,1005.4
2022-11-16T14:39:28.429Z,1005.4
2022-11-16T14:44:27.898Z,1005.4
2022-11-16T14:49:28.043Z,1005.4
2022-11-16T14:54:27.708Z,1005.4
2022-11-16T14:59:28.368Z,1005.4
2022-11-16T15:04:27.920Z,1005.4
2022-11-16T15:09:29.383Z,1005.2
2022-11-16T15:14:27.785Z,1005.2
2022-11-16T15:19:28.515Z,1005.3
2022-11-16T15:24:32.538Z,1005.3
2022-11-16T15:29:27.983Z,1005.3
2022-11-16T15:34:28.185Z,1005.3
2022-11-16T15:39:27.796Z,1005.3
2022-11-16T15:44:27.922Z,1005.3
2022-11-16T15:49:28.285Z,1005.2
2022-11-16T15:54:27.724Z,1005.2
2022-11-16T15:59:27.940Z,1005.3
2022-11-16T16:04:28.596Z,1005.3
2022-11-16T16:09:28.079Z,1005.3
2022-11-16T16:14:28.558Z,1005.3
2022-11-16T16:19:28.071Z,1005.3
2022-11-16T16:24:28.299Z,1005.3
2022-11-16T16:29:28.506Z,1005.4
2022-11-16T16:34:28.569Z,1005.4
2022-11-16T16:39:27.814Z,1005.3
2022-11-16T16:44:28.110Z,1005.3
2022-11-16T16:49:28.588Z,1005.5
2022-11-16T16:54:27.844Z,1005.5
2022-11-16T16:59:28.215Z,1005.7
2022-11-16T17:04:28.726Z,1005.7
2022-11-16T17:09:28.065Z,1005.7
2022-11-16T17:14:28.512Z,1005.7
2022-11-16T17:19:27.842Z,1005.6
2022-11-16T17:24:28.120Z,1005.6
2022-11-16T17:29:28.624Z,1005.7
2022-11-16T17:34:28.649Z,1005.7
2022-11-16T17:39:27.823Z,1005.8
2022-11-16T17:44:28.015Z,1005.8
2022-11-16T17:49:28.148Z,1005.7
2022-11-16T17:54:28.479Z,1005.7
2022-11-16T17:59:30.291Z,1005.8
2022-11-16T18:04:28.494Z,1005.8
2022-11-16T18:09:27.834Z,1005.8
2022-11-16T18:14:27.992Z,1005.8
2022-11-16T18:19:28.223Z,1005.9
2022-11-16T18:24:28.474Z,1005.9
2022-11-16T18:29:28.628Z,1005.9
2022-11-16T18:34:27.772Z,1005.9
2022-11-16T18:39:28.048Z,1005.8
2022-11-16T18:44:28.184Z,1005.8
2022-11-16T18:49:28.424Z,1005.8
2022-11-16T18:54:27.854Z,1005.8
2022-11-16T18:59:28.200Z,1005.8
2022-11-16T19:04:28.430Z,1005.8
2022-11-16T19:09:28.793Z,1005.8
2022-11-16T19:14:28.503Z,1005.8
2022-11-16T19:19:28.658Z,1005.7
2022-11-16T19:24:28.839Z,1005.7
2022-11-16T19:29:28.102Z,1005.6
2022-11-16T19:34:33.731Z,1005.6
2022-11-16T19:39:28.113Z,1005.6
2022-11-16T19:44:28.423Z,1005.6
2022-11-16T19:49:28.738Z,1005.4
2022-11-16T19:54:28.245Z,1005.4
2022-11-16T19:59:28.476Z,1005.5
2022-11-16T20:04:28.701Z,1005.5
2022-11-16T20:09:27.856Z,1005.5
2022-11-16T20:14:28.026Z,1005.5
2022-11-16T20:19:28.260Z,1005.4
2022-11-16T20:24:28.505Z,1005.4
2022-11-16T20:29:28.520Z,1005.3
2022-11-16T20:34:28.914Z,1005.3
2022-11-16T20:39:28.053Z,1005.1
2022-11-16T20:44:28.654Z,1005.1
2022-11-16T20:49:28.159Z,1005.2
2022-11-16T20:54:28.517Z,1005.2
2022-11-16T20:59:28.566Z,1005.2
2022-11-16T21:04:28.314Z,1005.2
2022-11-16T21:09:28.576Z,1005.2
2022-11-16T21:14:28.677Z,1005.2
2022-11-16T21:19:28.671Z,1005.2
2022-11-16T21:24:28.140Z,1005.2
2022-11-16T21:29:28.464Z,1005
2022-11-16T21:34:29.053Z,1005
2022-11-16T21:39:28.408Z,1005
2022-11-16T21:44:28.455Z,1005
2022-11-16T21:49:28.676Z,1004.9
2022-11-16T21:54:28.932Z,1004.9
2022-11-16T21:59:28.152Z,1004.9
2022-11-16T22:04:28.361Z,1004.9
2022-11-16T22:09:28.658Z,1004.9
2022-11-16T22:14:28.977Z,1004.9
2022-11-16T22:19:28.908Z,1004.9
2022-11-16T22:24:28.990Z,1004.9
2022-11-16T22:29:28.675Z,1004.9
2022-11-16T22:34:28.091Z,1004.9
2022-11-16T22:39:28.336Z,1004.9
2022-11-16T22:44:28.682Z,1004.9
2022-11-16T22:49:28.886Z,1004.9
2022-11-16T22:54:29.095Z,1004.9
2022-11-16T22:59:28.267Z,1004.8
2022-11-16T23:04:28.309Z,1004.8
2022-11-16T23:09:28.691Z,1004.6
2022-11-16T23:14:28.845Z,1004.6
2022-11-16T23:19:28.210Z,1004.6
2022-11-16T23:24:28.596Z,1004.6
2022-11-16T23:29:28.040Z,1004.6
2022-11-16T23:34:28.134Z,1004.6
2022-11-16T23:39:28.374Z,1004.4
2022-11-16T23:44:28.666Z,1004.4
2022-11-16T23:49:28.966Z,1004.2
2022-11-16T23:54:28.202Z,1004.2
2022-11-16T23:59:28.680Z,1004.1
